sensor_id;sensor_type;location;lat;lon;timestamp;pressure;altitude;pressure_sealevel;temperature;humidity
57562;BME280;43397;51.530;5.974;2022-12-18T00:00:55;102455.72;;;-8.27;100.00
57562;BME280;43397;51.530;5.974;2022-12-18T00:03:20;102465.22;;;-8.17;100.00
57562;BME280;43397;51.530;5.974;2022-12-18T00:05:47;102462.72;;;-8.07;100.00
57562;BME280;43397;51.530;5.974;2022-12-18T00:08:13;102454.22;;;-8.06;100.00
57562;BME280;43397;51.530;5.974;2022-12-18T00:10:40;102457.19;;;-8.20;100.00
57562;BME280;43397;51.530;5.974;2022-12-18T00:13:06;102452.66;;;-8.23;100.00
57562;BME280;43397;51.530;5.974;2022-12-18T00:15:33;102448.69;;;-8.19;100.00
57562;BME280;43397;51.530;5.974;2022-12-18T00:17:58;102452.78;;;-8.21;100.00
57562;BME280;43397;51.530;5.974;2022-12-18T00:20:24;102445.47;;;-8.36;100.00
57562;BME280;43397;51.530;5.974;2022-12-18T00:22:50;102446.59;;;-8.42;100.00
57562;BME280;43397;51.530;5.974;2022-12-18T00:25:16;102443.16;;;-8.33;100.00
57562;BME280;43397;51.530;5.974;2022-12-18T00:27:43;102442.19;;;-8.24;100.00
57562;BME280;43397;51.530;5.974;2022-12-18T00:30:09;102444.09;;;-8.13;100.00
57562;BME280;43397;51.530;5.974;2022-12-18T00:32:35;102446.03;;;-8.11;100.00
57562;BME280;43397;51.530;5.974;2022-12-18T00:35:01;102451.25;;;-8.19;100.00
57562;BME280;43397;51.530;5.974;2022-12-18T00:37:26;102439.41;;;-8.17;100.00
57562;BME280;43397;51.530;5.974;2022-12-18T00:39:52;102432.03;;;-8.23;100.00
57562;BME280;43397;51.530;5.974;2022-12-18T00:42:18;102426.81;;;-8.14;100.00
57562;BME280;43397;51.530;5.974;2022-12-18T00:44:45;102416.94;;;-8.10;100.00
57562;BME280;43397;51.530;5.974;2022-12-18T00:47:10;102422.09;;;-8.10;100.00
57562;BME280;43397;51.530;5.974;2022-12-18T00:49:37;102430.56;;;-8.11;100.00
57562;BME280;43397;51.530;5.974;2022-12-18T00:52:02;102434.81;;;-8.11;100.00
57562;BME280;43397;51.530;5.974;2022-12-18T00:54:28;102433.34;;;-8.18;100.00
57562;BME280;43397;51.530;5.974;2022-12-18T00:56:53;102439.78;;;-8.23;100.00
57562;BME280;43397;51.530;5.974;2022-12-18T00:59:19;102441.31;;;-8.25;100.00
57562;BME280;43397;51.530;5.974;2022-12-18T01:01:46;102431.97;;;-8.14;100.00
57562;BME280;43397;51.530;5.974;2022-12-18T01:04:12;102434.56;;;-8.14;100.00
57562;BME280;43397;51.530;5.974;2022-12-18T01:06:38;102439.72;;;-8.14;100.00
57562;BME280;43397;51.530;5.974;2022-12-18T01:09:04;102449.00;;;-8.16;100.00
57562;BME280;43397;51.530;5.974;2022-12-18T01:11:29;102441.72;;;-8.20;100.00
57562;BME280;43397;51.530;5.974;2022-12-18T01:13:56;102429.47;;;-8.04;100.00
57562;BME280;43397;51.530;5.974;2022-12-18T01:16:22;102439.56;;;-8.16;100.00
57562;BME280;43397;51.530;5.974;2022-12-18T01:18:52;102444.41;;;-8.19;100.00
57562;BME280;43397;51.530;5.974;2022-12-18T01:21:17;102445.63;;;-8.15;100.00
57562;BME280;43397;51.530;5.974;2022-12-18T01:23:43;102443.09;;;-8.24;100.00
57562;BME280;43397;51.530;5.974;2022-12-18T01:26:12;102442.00;;;-8.17;100.00
57562;BME280;43397;51.530;5.974;2022-12-18T01:28:38;102440.72;;;-8.12;100.00
57562;BME280;43397;51.530;5.974;2022-12-18T01:31:15;102446.59;;;-8.23;100.00
57562;BME280;43397;51.530;5.974;2022-12-18T01:33:41;102447.22;;;-8.26;100.00
57562;BME280;43397;51.530;5.974;2022-12-18T01:36:14;102442.94;;;-8.25;100.00
57562;BME280;43397;51.530;5.974;2022-12-18T01:38:40;102450.22;;;-8.21;100.00
57562;BME280;43397;51.530;5.974;2022-12-18T01:41:06;102437.69;;;-8.27;100.00
57562;BME280;43397;51.530;5.974;2022-12-18T01:43:41;102443.53;;;-8.19;100.00
57562;BME280;43397;51.530;5.974;2022-12-18T01:46:08;102436.09;;;-8.16;100.00
57562;BME280;43397;51.530;5.974;2022-12-18T01:48:34;102434.63;;;-8.23;100.00
57562;BME280;43397;51.530;5.974;2022-12-18T01:50:59;102436.41;;;-8.22;100.00
57562;BME280;43397;51.530;5.974;2022-12-18T01:53:26;102435.63;;;-8.21;100.00
57562;BME280;43397;51.530;5.974;2022-12-18T01:55:54;102430.63;;;-8.19;100.00
57562;BME280;43397;51.530;5.974;2022-12-18T01:58:24;102426.09;;;-8.22;100.00
57562;BME280;43397;51.530;5.974;2022-12-18T02:00:54;102430.00;;;-8.17;100.00
57562;BME280;43397;51.530;5.974;2022-12-18T02:03:19;102427.41;;;-8.17;100.00
57562;BME280;43397;51.530;5.974;2022-12-18T02:05:47;102434.31;;;-8.26;100.00
57562;BME280;43397;51.530;5.974;2022-12-18T02:08:19;102438.25;;;-8.30;100.00
57562;BME280;43397;51.530;5.974;2022-12-18T02:10:53;102428.66;;;-8.41;100.00
57562;BME280;43397;51.530;5.974;2022-12-18T02:13:26;102430.00;;;-8.36;100.00
57562;BME280;43397;51.530;5.974;2022-12-18T02:15:59;102432.63;;;-8.25;100.00
57562;BME280;43397;51.530;5.974;2022-12-18T02:18:31;102437.63;;;-8.18;100.00
57562;BME280;43397;51.530;5.974;2022-12-18T02:21:01;102443.88;;;-8.25;100.00
57562;BME280;43397;51.530;5.974;2022-12-18T02:23:45;102438.56;;;-8.27;100.00
57562;BME280;43397;51.530;5.974;2022-12-18T02:26:17;102438.41;;;-8.28;100.00
57562;BME280;43397;51.530;5.974;2022-12-18T02:28:47;102435.69;;;-8.30;100.00
57562;BME280;43397;51.530;5.974;2022-12-18T02:31:17;102433.94;;;-8.39;100.00
57562;BME280;43397;51.530;5.974;2022-12-18T02:33:45;102429.84;;;-8.37;100.00
57562;BME280;43397;51.530;5.974;2022-12-18T02:36:13;102435.22;;;-8.44;100.00
57562;BME280;43397;51.530;5.974;2022-12-18T02:38:41;102428.00;;;-8.38;100.00
57562;BME280;43397;51.530;5.974;2022-12-18T02:41:08;102428.16;;;-8.37;100.00
57562;BME280;43397;51.530;5.974;2022-12-18T02:43:35;102425.25;;;-8.31;100.00
57562;BME280;43397;51.530;5.974;2022-12-18T02:46:25;102419.19;;;-8.32;100.00
57562;BME280;43397;51.530;5.974;2022-12-18T02:48:55;102421.19;;;-8.38;100.00
57562;BME280;43397;51.530;5.974;2022-12-18T02:51:27;102421.06;;;-8.39;100.00
57562;BME280;43397;51.530;5.974;2022-12-18T02:54:00;102407.78;;;-8.44;100.00
57562;BME280;43397;51.530;5.974;2022-12-18T02:56:31;102419.38;;;-8.39;100.00
57562;BME280;43397;51.530;5.974;2022-12-18T02:59:05;102408.81;;;-8.42;100.00
57562;BME280;43397;51.530;5.974;2022-12-18T03:01:35;102411.63;;;-8.39;100.00
57562;BME280;43397;51.530;5.974;2022-12-18T03:04:09;102409.72;;;-8.41;100.00
57562;BME280;43397;51.530;5.974;2022-12-18T03:06:40;102404.56;;;-8.41;100.00
57562;BME280;43397;51.530;5.974;2022-12-18T03:09:09;102393.25;;;-8.33;100.00
57562;BME280;43397;51.530;5.974;2022-12-18T03:11:39;102390.94;;;-8.30;100.00
57562;BME280;43397;51.530;5.974;2022-12-18T03:14:07;102393.75;;;-8.37;100.00
57562;BME280;43397;51.530;5.974;2022-12-18T03:16:35;102391.53;;;-8.43;100.00
57562;BME280;43397;51.530;5.974;2022-12-18T03:19:03;102403.34;;;-8.45;100.00
57562;BME280;43397;51.530;5.974;2022-12-18T03:21:33;102397.16;;;-8.47;100.00
57562;BME280;43397;51.530;5.974;2022-12-18T03:24:02;102403.34;;;-8.45;100.00
57562;BME280;43397;51.530;5.974;2022-12-18T03:26:31;102402.31;;;-8.47;100.00
57562;BME280;43397;51.530;5.974;2022-12-18T03:29:02;102398.34;;;-8.43;100.00
57562;BME280;43397;51.530;5.974;2022-12-18T03:31:30;102400.56;;;-8.38;100.00
57562;BME280;43397;51.530;5.974;2022-12-18T03:33:58;102402.22;;;-8.38;100.00
57562;BME280;43397;51.530;5.974;2022-12-18T03:36:25;102400.78;;;-8.45;100.00
57562;BME280;43397;51.530;5.974;2022-12-18T03:38:52;102403.72;;;-8.51;100.00
57562;BME280;43397;51.530;5.974;2022-12-18T03:41:19;102403.09;;;-8.48;100.00
57562;BME280;43397;51.530;5.974;2022-12-18T03:43:51;102392.44;;;-8.42;100.00
57562;BME280;43397;51.530;5.974;2022-12-18T03:46:26;102394.47;;;-8.38;100.00
57562;BME280;43397;51.530;5.974;2022-12-18T03:48:59;102392.06;;;-8.37;100.00
57562;BME280;43397;51.530;5.974;2022-12-18T03:51:28;102383.56;;;-8.36;100.00
57562;BME280;43397;51.530;5.974;2022-12-18T03:54:00;102387.53;;;-8.39;100.00
57562;BME280;43397;51.530;5.974;2022-12-18T03:56:29;102381.25;;;-8.33;100.00
57562;BME280;43397;51.530;5.974;2022-12-18T03:58:57;102378.50;;;-8.44;100.00
57562;BME280;43397;51.530;5.974;2022-12-18T04:01:30;102373.84;;;-8.49;100.00
57562;BME280;43397;51.530;5.974;2022-12-18T04:04:00;102378.22;;;-8.48;100.00
57562;BME280;43397;51.530;5.974;2022-12-18T04:06:27;102370.47;;;-8.48;100.00
57562;BME280;43397;51.530;5.974;2022-12-18T04:08:54;102367.81;;;-8.39;100.00
57562;BME280;43397;51.530;5.974;2022-12-18T04:11:20;102361.75;;;-8.39;100.00
57562;BME280;43397;51.530;5.974;2022-12-18T04:13:46;102367.25;;;-8.45;100.00
57562;BME280;43397;51.530;5.974;2022-12-18T04:16:11;102360.94;;;-8.49;100.00
57562;BME280;43397;51.530;5.974;2022-12-18T04:18:37;102358.41;;;-8.57;100.00
57562;BME280;43397;51.530;5.974;2022-12-18T04:21:04;102361.28;;;-8.54;100.00
57562;BME280;43397;51.530;5.974;2022-12-18T04:23:30;102359.16;;;-8.58;100.00
57562;BME280;43397;51.530;5.974;2022-12-18T04:25:56;102349.22;;;-8.45;100.00
57562;BME280;43397;51.530;5.974;2022-12-18T04:28:22;102346.53;;;-8.36;100.00
57562;BME280;43397;51.530;5.974;2022-12-18T04:30:48;102345.31;;;-8.31;100.00
57562;BME280;43397;51.530;5.974;2022-12-18T04:33:14;102337.00;;;-8.37;100.00
57562;BME280;43397;51.530;5.974;2022-12-18T04:35:40;102340.91;;;-8.32;100.00
57562;BME280;43397;51.530;5.974;2022-12-18T04:38:08;102331.94;;;-8.27;100.00
57562;BME280;43397;51.530;5.974;2022-12-18T04:40:35;102339.09;;;-8.33;100.00
57562;BME280;43397;51.530;5.974;2022-12-18T04:43:00;102339.84;;;-8.34;100.00
57562;BME280;43397;51.530;5.974;2022-12-18T04:45:26;102336.16;;;-8.28;100.00
57562;BME280;43397;51.530;5.974;2022-12-18T04:47:52;102329.06;;;-8.30;100.00
57562;BME280;43397;51.530;5.974;2022-12-18T04:50:17;102323.56;;;-8.24;100.00
57562;BME280;43397;51.530;5.974;2022-12-18T04:52:43;102321.66;;;-8.17;100.00
57562;BME280;43397;51.530;5.974;2022-12-18T04:55:10;102341.06;;;-8.12;100.00
57562;BME280;43397;51.530;5.974;2022-12-18T04:57:36;102331.66;;;-8.11;100.00
57562;BME280;43397;51.530;5.974;2022-12-18T05:00:02;102340.06;;;-8.03;100.00
57562;BME280;43397;51.530;5.974;2022-12-18T05:02:28;102332.63;;;-8.00;100.00
57562;BME280;43397;51.530;5.974;2022-12-18T05:04:54;102341.97;;;-7.92;100.00
57562;BME280;43397;51.530;5.974;2022-12-18T05:07:19;102347.31;;;-7.80;100.00
57562;BME280;43397;51.530;5.974;2022-12-18T05:09:45;102349.25;;;-7.78;100.00
57562;BME280;43397;51.530;5.974;2022-12-18T05:12:12;102355.09;;;-7.70;100.00
57562;BME280;43397;51.530;5.974;2022-12-18T05:14:38;102357.59;;;-7.61;100.00
57562;BME280;43397;51.530;5.974;2022-12-18T05:17:03;102365.47;;;-7.60;100.00
57562;BME280;43397;51.530;5.974;2022-12-18T05:19:29;102369.31;;;-7.65;100.00
57562;BME280;43397;51.530;5.974;2022-12-18T05:21:55;102377.34;;;-7.62;100.00
57562;BME280;43397;51.530;5.974;2022-12-18T05:24:20;102382.78;;;-7.78;100.00
57562;BME280;43397;51.530;5.974;2022-12-18T05:26:46;102395.59;;;-7.79;100.00
57562;BME280;43397;51.530;5.974;2022-12-18T05:29:13;102401.66;;;-7.79;100.00
57562;BME280;43397;51.530;5.974;2022-12-18T05:31:39;102398.66;;;-7.83;100.00
57562;BME280;43397;51.530;5.974;2022-12-18T05:34:05;102395.16;;;-7.84;100.00
57562;BME280;43397;51.530;5.974;2022-12-18T05:36:31;102397.78;;;-7.93;100.00
57562;BME280;43397;51.530;5.974;2022-12-18T05:38:57;102396.41;;;-7.89;100.00
57562;BME280;43397;51.530;5.974;2022-12-18T05:41:23;102391.19;;;-7.80;100.00
57562;BME280;43397;51.530;5.974;2022-12-18T05:43:48;102378.28;;;-7.80;100.00
57562;BME280;43397;51.530;5.974;2022-12-18T05:46:16;102376.59;;;-7.80;100.00
57562;BME280;43397;51.530;5.974;2022-12-18T05:48:43;102382.75;;;-7.88;100.00
57562;BME280;43397;51.530;5.974;2022-12-18T05:51:10;102384.72;;;-7.86;100.00
57562;BME280;43397;51.530;5.974;2022-12-18T05:53:37;102381.34;;;-7.84;100.00
57562;BME280;43397;51.530;5.974;2022-12-18T05:56:04;102382.13;;;-7.86;100.00
57562;BME280;43397;51.530;5.974;2022-12-18T05:58:31;102374.38;;;-7.86;100.00
57562;BME280;43397;51.530;5.974;2022-12-18T06:00:57;102367.81;;;-7.82;100.00
57562;BME280;43397;51.530;5.974;2022-12-18T06:03:24;102363.34;;;-7.74;100.00
57562;BME280;43397;51.530;5.974;2022-12-18T06:05:50;102354.47;;;-7.68;100.00
57562;BME280;43397;51.530;5.974;2022-12-18T06:08:15;102356.91;;;-7.69;100.00
57562;BME280;43397;51.530;5.974;2022-12-18T06:10:41;102358.66;;;-7.59;100.00
57562;BME280;43397;51.530;5.974;2022-12-18T06:13:07;102356.63;;;-7.43;100.00
57562;BME280;43397;51.530;5.974;2022-12-18T06:15:35;102340.78;;;-7.37;100.00
57562;BME280;43397;51.530;5.974;2022-12-18T06:18:01;102332.53;;;-7.33;100.00
57562;BME280;43397;51.530;5.974;2022-12-18T06:20:28;102327.91;;;-7.27;100.00
57562;BME280;43397;51.530;5.974;2022-12-18T06:22:54;102321.50;;;-7.12;100.00
57562;BME280;43397;51.530;5.974;2022-12-18T06:25:19;102321.88;;;-7.07;100.00
57562;BME280;43397;51.530;5.974;2022-12-18T06:27:47;102333.13;;;-7.07;100.00
57562;BME280;43397;51.530;5.974;2022-12-18T06:30:13;102341.00;;;-7.05;100.00
57562;BME280;43397;51.530;5.974;2022-12-18T06:32:39;102344.63;;;-6.93;100.00
57562;BME280;43397;51.530;5.974;2022-12-18T06:35:05;102337.44;;;-6.76;100.00
57562;BME280;43397;51.530;5.974;2022-12-18T06:37:33;102336.53;;;-6.77;100.00
57562;BME280;43397;51.530;5.974;2022-12-18T06:39:58;102333.00;;;-6.77;100.00
57562;BME280;43397;51.530;5.974;2022-12-18T06:42:24;102336.53;;;-6.77;100.00
57562;BME280;43397;51.530;5.974;2022-12-18T06:44:50;102325.66;;;-6.73;100.00
57562;BME280;43397;51.530;5.974;2022-12-18T06:47:16;102316.75;;;-6.76;100.00
57562;BME280;43397;51.530;5.974;2022-12-18T06:49:42;102310.41;;;-6.70;100.00
57562;BME280;43397;51.530;5.974;2022-12-18T06:52:08;102316.22;;;-6.62;100.00
57562;BME280;43397;51.530;5.974;2022-12-18T06:54:35;102310.94;;;-6.64;100.00
57562;BME280;43397;51.530;5.974;2022-12-18T06:57:01;102318.03;;;-6.61;100.00
57562;BME280;43397;51.530;5.974;2022-12-18T06:59:27;102318.56;;;-6.65;100.00
57562;BME280;43397;51.530;5.974;2022-12-18T07:01:52;102319.84;;;-6.70;100.00
57562;BME280;43397;51.530;5.974;2022-12-18T07:04:18;102320.25;;;-6.66;100.00
57562;BME280;43397;51.530;5.974;2022-12-18T07:06:43;102321.53;;;-6.60;100.00
57562;BME280;43397;51.530;5.974;2022-12-18T07:09:09;102324.09;;;-6.71;100.00
57562;BME280;43397;51.530;5.974;2022-12-18T07:11:36;102316.09;;;-6.74;100.00
57562;BME280;43397;51.530;5.974;2022-12-18T07:14:02;102309.00;;;-6.66;100.00
57562;BME280;43397;51.530;5.974;2022-12-18T07:16:27;102309.13;;;-6.54;100.00
57562;BME280;43397;51.530;5.974;2022-12-18T07:18:54;102314.94;;;-6.57;100.00
57562;BME280;43397;51.530;5.974;2022-12-18T07:21:21;102317.25;;;-6.60;100.00
57562;BME280;43397;51.530;5.974;2022-12-18T07:23:47;102308.59;;;-6.60;100.00
57562;BME280;43397;51.530;5.974;2022-12-18T07:26:15;102315.84;;;-6.56;100.00
57562;BME280;43397;51.530;5.974;2022-12-18T07:28:42;102305.50;;;-6.56;100.00
57562;BME280;43397;51.530;5.974;2022-12-18T07:31:10;102297.75;;;-6.56;100.00
57562;BME280;43397;51.530;5.974;2022-12-18T07:33:36;102304.56;;;-6.47;100.00
57562;BME280;43397;51.530;5.974;2022-12-18T07:36:03;102294.50;;;-6.44;100.00
57562;BME280;43397;51.530;5.974;2022-12-18T07:38:30;102296.72;;;-6.48;100.00
57562;BME280;43397;51.530;5.974;2022-12-18T07:41:00;102303.53;;;-6.38;100.00
57562;BME280;43397;51.530;5.974;2022-12-18T07:43:25;102293.22;;;-6.49;100.00
57562;BME280;43397;51.530;5.974;2022-12-18T07:45:52;102306.25;;;-6.47;100.00
57562;BME280;43397;51.530;5.974;2022-12-18T07:48:18;102294.88;;;-6.49;100.00
57562;BME280;43397;51.530;5.974;2022-12-18T07:50:44;102284.41;;;-6.41;100.00
57562;BME280;43397;51.530;5.974;2022-12-18T07:53:09;102280.91;;;-6.41;100.00
57562;BME280;43397;51.530;5.974;2022-12-18T07:55:35;102269.53;;;-6.43;100.00
57562;BME280;43397;51.530;5.974;2022-12-18T07:58:01;102268.13;;;-6.39;100.00
57562;BME280;43397;51.530;5.974;2022-12-18T08:00:27;102254.38;;;-6.28;100.00
57562;BME280;43397;51.530;5.974;2022-12-18T08:02:54;102269.75;;;-6.19;100.00
57562;BME280;43397;51.530;5.974;2022-12-18T08:05:20;102270.25;;;-6.13;100.00
57562;BME280;43397;51.530;5.974;2022-12-18T08:07:46;102271.00;;;-6.04;100.00
57562;BME280;43397;51.530;5.974;2022-12-18T08:10:12;102255.69;;;-6.01;100.00
57562;BME280;43397;51.530;5.974;2022-12-18T08:12:38;102264.44;;;-5.89;100.00
57562;BME280;43397;51.530;5.974;2022-12-18T08:15:05;102257.94;;;-5.84;100.00
57562;BME280;43397;51.530;5.974;2022-12-18T08:17:30;102258.34;;;-5.79;100.00
57562;BME280;43397;51.530;5.974;2022-12-18T08:19:57;102249.59;;;-5.69;100.00
57562;BME280;43397;51.530;5.974;2022-12-18T08:22:23;102253.34;;;-5.66;100.00
57562;BME280;43397;51.530;5.974;2022-12-18T08:24:49;102262.91;;;-5.65;100.00
57562;BME280;43397;51.530;5.974;2022-12-18T08:27:15;102258.00;;;-5.62;100.00
57562;BME280;43397;51.530;5.974;2022-12-18T08:29:40;102260.22;;;-5.44;100.00
57562;BME280;43397;51.530;5.974;2022-12-18T08:32:07;102260.47;;;-5.41;100.00
57562;BME280;43397;51.530;5.974;2022-12-18T08:34:33;102261.78;;;-5.24;100.00
57562;BME280;43397;51.530;5.974;2022-12-18T08:37:00;102255.53;;;-5.16;100.00
57562;BME280;43397;51.530;5.974;2022-12-18T08:39:26;102253.28;;;-5.11;100.00
57562;BME280;43397;51.530;5.974;2022-12-18T08:41:51;102256.91;;;-5.09;100.00
57562;BME280;43397;51.530;5.974;2022-12-18T08:44:17;102250.84;;;-4.98;100.00
57562;BME280;43397;51.530;5.974;2022-12-18T08:46:43;102243.97;;;-4.86;100.00
57562;BME280;43397;51.530;5.974;2022-12-18T08:49:10;102249.75;;;-4.90;100.00
57562;BME280;43397;51.530;5.974;2022-12-18T08:51:36;102247.81;;;-4.92;100.00
57562;BME280;43397;51.530;5.974;2022-12-18T08:54:05;102254.94;;;-4.90;100.00
57562;BME280;43397;51.530;5.974;2022-12-18T08:56:31;102257.97;;;-4.84;100.00
57562;BME280;43397;51.530;5.974;2022-12-18T08:58:57;102254.13;;;-4.89;100.00
57562;BME280;43397;51.530;5.974;2022-12-18T09:01:23;102248.53;;;-4.83;100.00
57562;BME280;43397;51.530;5.974;2022-12-18T09:03:49;102239.72;;;-4.85;100.00
57562;BME280;43397;51.530;5.974;2022-12-18T09:06:16;102228.00;;;-4.68;100.00
57562;BME280;43397;51.530;5.974;2022-12-18T09:08:42;102225.78;;;-4.64;100.00
57562;BME280;43397;51.530;5.974;2022-12-18T09:11:14;102222.63;;;-4.60;100.00
57562;BME280;43397;51.530;5.974;2022-12-18T09:13:40;102230.09;;;-4.52;100.00
57562;BME280;43397;51.530;5.974;2022-12-18T09:16:06;102222.09;;;-4.44;100.00
57562;BME280;43397;51.530;5.974;2022-12-18T09:18:32;102231.44;;;-4.34;100.00
57562;BME280;43397;51.530;5.974;2022-12-18T09:20:58;102220.94;;;-4.36;100.00
57562;BME280;43397;51.530;5.974;2022-12-18T09:23:23;102224.47;;;-4.35;100.00
57562;BME280;43397;51.530;5.974;2022-12-18T09:25:49;102227.94;;;-4.23;100.00
57562;BME280;43397;51.530;5.974;2022-12-18T09:28:17;102224.78;;;-4.19;100.00
57562;BME280;43397;51.530;5.974;2022-12-18T09:30:45;102219.25;;;-4.23;100.00
57562;BME280;43397;51.530;5.974;2022-12-18T09:33:11;102237.66;;;-4.20;100.00
57562;BME280;43397;51.530;5.974;2022-12-18T09:35:39;102232.34;;;-4.10;100.00
57562;BME280;43397;51.530;5.974;2022-12-18T09:38:05;102225.22;;;-4.13;100.00
57562;BME280;43397;51.530;5.974;2022-12-18T09:40:34;102217.56;;;-4.11;100.00
57562;BME280;43397;51.530;5.974;2022-12-18T09:43:03;102231.53;;;-3.97;100.00
57562;BME280;43397;51.530;5.974;2022-12-18T09:45:35;102229.84;;;-3.97;100.00
57562;BME280;43397;51.530;5.974;2022-12-18T09:48:05;102223.63;;;-3.87;100.00
57562;BME280;43397;51.530;5.974;2022-12-18T09:50:34;102231.44;;;-3.87;100.00
57562;BME280;43397;51.530;5.974;2022-12-18T09:53:05;102225.19;;;-3.77;100.00
57562;BME280;43397;51.530;5.974;2022-12-18T09:55:35;102232.66;;;-3.82;100.00
57562;BME280;43397;51.530;5.974;2022-12-18T09:58:05;102237.03;;;-3.69;100.00
57562;BME280;43397;51.530;5.974;2022-12-18T10:00:34;102226.28;;;-3.62;100.00
57562;BME280;43397;51.530;5.974;2022-12-18T10:03:03;102221.78;;;-3.64;100.00
57562;BME280;43397;51.530;5.974;2022-12-18T10:05:37;102225.94;;;-3.55;100.00
57562;BME280;43397;51.530;5.974;2022-12-18T10:08:08;102215.53;;;-3.55;100.00
57562;BME280;43397;51.530;5.974;2022-12-18T10:10:43;102203.97;;;-3.46;100.00
57562;BME280;43397;51.530;5.974;2022-12-18T10:13:21;102191.22;;;-3.43;100.00
57562;BME280;43397;51.530;5.974;2022-12-18T10:16:00;102193.97;;;-3.28;100.00
57562;BME280;43397;51.530;5.974;2022-12-18T10:18:42;102192.72;;;-3.34;100.00
57562;BME280;43397;51.530;5.974;2022-12-18T10:21:18;102192.47;;;-3.25;100.00
57562;BME280;43397;51.530;5.974;2022-12-18T10:23:50;102192.59;;;-3.23;100.00
57562;BME280;43397;51.530;5.974;2022-12-18T10:26:18;102195.63;;;-3.17;100.00
57562;BME280;43397;51.530;5.974;2022-12-18T10:28:44;102189.72;;;-3.15;100.00
57562;BME280;43397;51.530;5.974;2022-12-18T10:31:16;102182.44;;;-3.07;100.00
57562;BME280;43397;51.530;5.974;2022-12-18T10:33:42;102183.84;;;-2.99;100.00
57562;BME280;43397;51.530;5.974;2022-12-18T10:36:08;102183.94;;;-3.11;100.00
57562;BME280;43397;51.530;5.974;2022-12-18T10:38:34;102197.25;;;-3.06;100.00
57562;BME280;43397;51.530;5.974;2022-12-18T10:41:02;102190.38;;;-2.92;100.00
57562;BME280;43397;51.530;5.974;2022-12-18T10:43:29;102184.81;;;-2.85;100.00
57562;BME280;43397;51.530;5.974;2022-12-18T10:46:14;102179.66;;;-2.97;100.00
57562;BME280;43397;51.530;5.974;2022-12-18T10:48:50;102167.59;;;-2.83;100.00
57562;BME280;43397;51.530;5.974;2022-12-18T10:51:22;102167.31;;;-2.74;100.00
57562;BME280;43397;51.530;5.974;2022-12-18T10:53:53;102164.19;;;-2.82;100.00
57562;BME280;43397;51.530;5.974;2022-12-18T10:56:20;102156.28;;;-2.70;100.00
57562;BME280;43397;51.530;5.974;2022-12-18T10:58:55;102151.00;;;-2.58;100.00
57562;BME280;43397;51.530;5.974;2022-12-18T11:01:22;102159.28;;;-2.64;100.00
57562;BME280;43397;51.530;5.974;2022-12-18T11:03:59;102151.50;;;-2.51;100.00
57562;BME280;43397;51.530;5.974;2022-12-18T11:06:25;102142.19;;;-2.47;100.00
57562;BME280;43397;51.530;5.974;2022-12-18T11:08:58;102149.09;;;-2.47;100.00
57562;BME280;43397;51.530;5.974;2022-12-18T11:11:24;102133.19;;;-2.52;100.00
57562;BME280;43397;51.530;5.974;2022-12-18T11:13:57;102117.16;;;-2.45;100.00
57562;BME280;43397;51.530;5.974;2022-12-18T11:16:25;102114.56;;;-2.45;100.00
57562;BME280;43397;51.530;5.974;2022-12-18T11:18:52;102110.47;;;-2.55;100.00
57562;BME280;43397;51.530;5.974;2022-12-18T11:21:17;102104.03;;;-2.46;100.00
57562;BME280;43397;51.530;5.974;2022-12-18T11:23:47;102102.03;;;-2.51;100.00
57562;BME280;43397;51.530;5.974;2022-12-18T11:26:14;102092.31;;;-2.53;100.00
57562;BME280;43397;51.530;5.974;2022-12-18T11:28:42;102098.13;;;-2.44;100.00
57562;BME280;43397;51.530;5.974;2022-12-18T11:31:21;102089.94;;;-2.50;100.00
57562;BME280;43397;51.530;5.974;2022-12-18T11:33:54;102086.63;;;-2.47;100.00
57562;BME280;43397;51.530;5.974;2022-12-18T11:36:22;102094.72;;;-2.43;100.00
57562;BME280;43397;51.530;5.974;2022-12-18T11:38:49;102092.00;;;-2.31;100.00
57562;BME280;43397;51.530;5.974;2022-12-18T11:41:21;102081.13;;;-2.39;100.00
57562;BME280;43397;51.530;5.974;2022-12-18T11:43:53;102083.69;;;-2.25;100.00
57562;BME280;43397;51.530;5.974;2022-12-18T11:46:26;102092.94;;;-2.31;100.00
57562;BME280;43397;51.530;5.974;2022-12-18T11:48:58;102079.19;;;-2.28;100.00
57562;BME280;43397;51.530;5.974;2022-12-18T11:51:29;102089.91;;;-2.23;100.00
57562;BME280;43397;51.530;5.974;2022-12-18T11:53:59;102092.59;;;-2.22;100.00
57562;BME280;43397;51.530;5.974;2022-12-18T11:56:30;102096.50;;;-2.15;100.00
57562;BME280;43397;51.530;5.974;2022-12-18T11:59:07;102087.25;;;-2.10;100.00
57562;BME280;43397;51.530;5.974;2022-12-18T12:01:44;102083.44;;;-2.02;100.00
57562;BME280;43397;51.530;5.974;2022-12-18T12:04:39;102075.22;;;-2.08;100.00
57562;BME280;43397;51.530;5.974;2022-12-18T12:07:18;102075.34;;;-2.07;100.00
57562;BME280;43397;51.530;5.974;2022-12-18T12:09:55;102075.47;;;-1.90;100.00
57562;BME280;43397;51.530;5.974;2022-12-18T12:12:32;102067.69;;;-2.03;100.00
57562;BME280;43397;51.530;5.974;2022-12-18T12:15:11;102062.97;;;-1.96;100.00
57562;BME280;43397;51.530;5.974;2022-12-18T12:17:44;102063.66;;;-1.98;100.00
57562;BME280;43397;51.530;5.974;2022-12-18T12:20:19;102060.66;;;-1.91;100.00
57562;BME280;43397;51.530;5.974;2022-12-18T12:22:51;102051.75;;;-1.95;100.00
57562;BME280;43397;51.530;5.974;2022-12-18T12:25:28;102042.94;;;-1.97;100.00
57562;BME280;43397;51.530;5.974;2022-12-18T12:28:06;102056.50;;;-2.02;100.00
57562;BME280;43397;51.530;5.974;2022-12-18T12:30:41;102055.56;;;-2.03;100.00
57562;BME280;43397;51.530;5.974;2022-12-18T12:33:19;102052.63;;;-1.94;100.00
57562;BME280;43397;51.530;5.974;2022-12-18T12:35:56;102040.31;;;-1.97;100.00
57562;BME280;43397;51.530;5.974;2022-12-18T12:38:30;102039.44;;;-1.97;100.00
57562;BME280;43397;51.530;5.974;2022-12-18T12:40:59;102036.81;;;-1.97;100.00
57562;BME280;43397;51.530;5.974;2022-12-18T12:43:33;102036.38;;;-1.90;100.00
57562;BME280;43397;51.530;5.974;2022-12-18T12:46:03;102026.97;;;-1.88;100.00